Flight Track Log - Related Links

Times and Time Zones

All times are in EST time to prevent confusion due to time zone crossing. See the UAL33 flight status page for this flight to view local times or setup timezone preferences in your user account.

Time Position Orientation Groundspeed Altitude Reporting Facility
EST Latitude Longitude Course Direction KTS MPH feet Rate Location/Type
Wed 05:24:00 AM 37.1935 143.1104 74° East  Level Estimated
Wed 05:25:00 AM 37.1866 143.3033 93° East  Level FlightAware Approximate
Wed 05:26:00 AM 37.1793 143.4961 93° East  Level FlightAware Approximate
Wed 05:27:00 AM 37.1717 143.6889 93° East  Level FlightAware Approximate
Wed 05:28:00 AM 37.1638 143.8817 93° East  Level FlightAware Approximate
Wed 05:29:00 AM 37.1556 144.0745 93° East  Level FlightAware Approximate
Wed 05:30:00 AM 37.1471 144.2672 93° East  Level FlightAware Approximate
Wed 05:31:00 AM 37.1383 144.4598 93° East  Level FlightAware Approximate
Wed 05:32:00 AM 37.1292 144.6524 93° East  Level FlightAware Approximate
Wed 05:33:00 AM 37.1197 144.8450 93° East  Level FlightAware Approximate
Wed 05:34:00 AM 37.1099 145.0375 94° East  Level FlightAware Approximate
Wed 05:35:00 AM 37.1899 145.2023 84° East  Level Estimated
Wed 05:36:00 AM 37.1860 145.3954 91° East  Level FlightAware Approximate
Wed 05:37:00 AM 37.1818 145.5884 92° East  Level FlightAware Approximate
Wed 05:38:00 AM 37.1773 145.7813 92° East  Level FlightAware Approximate
Wed 05:39:00 AM 37.1724 145.9743 92° East  Level FlightAware Approximate
Wed 05:40:00 AM 37.1672 146.1698 92° East  Level FlightAware Approximate
Wed 05:41:00 AM 37.1617 146.3653 92° East  Level FlightAware Approximate
Wed 05:42:00 AM 37.1558 146.5608 92° East  Level FlightAware Approximate
Wed 05:43:00 AM 37.2351 146.7294 73° East  Level Estimated
Wed 05:44:00 AM 37.2718 146.9197 76° East  Level FlightAware Approximate
Wed 05:45:00 AM 37.3081 147.1103 76° East  Level FlightAware Approximate
Wed 05:46:00 AM 37.3442 147.3010 77° East  Level FlightAware Approximate
Wed 05:47:00 AM 37.3799 147.4919 77° East  Level FlightAware Approximate
Wed 05:48:00 AM 37.4154 147.6830 77° East  Level FlightAware Approximate
Wed 05:49:00 AM 37.4505 147.8743 77° East  Level FlightAware Approximate
Wed 05:50:00 AM 37.4853 148.0658 77° East  Level FlightAware Approximate
Wed 05:51:00 AM 37.5198 148.2574 77° East  Level FlightAware Approximate
Wed 05:52:00 AM 37.5540 148.4492 77° East  Level FlightAware Approximate
Wed 05:53:00 AM 37.5879 148.6412 77° East  Level FlightAware Approximate
Wed 05:54:00 AM 37.6215 148.8334 78° East  Level FlightAware Approximate
Wed 05:55:00 AM 37.6548 149.0257 78° East  Level FlightAware Approximate
Wed 05:56:00 AM 37.6877 149.2182 78° East  Level FlightAware Approximate
Wed 05:57:00 AM 37.7204 149.4109 78° East  Level FlightAware Approximate
Wed 05:58:00 AM 37.7527 149.6038 78° East  Level FlightAware Approximate
Wed 05:59:00 AM 37.7847 149.7968 78° East  Level FlightAware Approximate
Wed 06:00:00 AM 37.8164 149.9900 78° East  Level FlightAware Approximate
Wed 06:01:00 AM 37.8478 150.1833 78° East  Level FlightAware Approximate
Wed 06:02:00 AM 37.8789 150.3768 78° East  Level FlightAware Approximate
Wed 06:03:00 AM 37.9096 150.5705 79° East  Level FlightAware Approximate
Wed 06:04:00 AM 37.9401 150.7644 79° East  Level FlightAware Approximate
Wed 06:05:00 AM 37.9702 150.9584 79° East  Level FlightAware Approximate
Wed 06:06:00 AM 38.0000 151.1525 79° East  Level FlightAware Approximate
Wed 06:07:00 AM 38.0295 151.3468 79° East  Level FlightAware Approximate
Wed 06:08:00 AM 38.0586 151.5413 79° East  Level FlightAware Approximate
Wed 06:09:00 AM 38.0875 151.7359 79° East  Level FlightAware Approximate
Wed 06:10:00 AM 38.1160 151.9307 79° East  Level FlightAware Approximate
Wed 06:11:00 AM 38.1442 152.1256 80° East  Level FlightAware Approximate
Wed 06:12:00 AM 38.1721 152.3207 80° East  Level FlightAware Approximate
Wed 06:13:00 AM 38.1996 152.5159 80° East  Level FlightAware Approximate
Wed 06:14:00 AM 38.2268 152.7113 80° East  Level FlightAware Approximate
Wed 06:15:00 AM 38.2537 152.9068 80° East  Level FlightAware Approximate
Wed 06:16:00 AM 38.2803 153.1025 80° East  Level FlightAware Approximate
Wed 06:17:00 AM 38.3066 153.2983 80° East  Level FlightAware Approximate
Wed 06:18:00 AM 38.3325 153.4942 80° East  Level FlightAware Approximate
Wed 06:19:00 AM 38.3581 153.6903 80° East  Level FlightAware Approximate
Wed 06:20:00 AM 38.3834 153.8866 81° East  Level FlightAware Approximate
Wed 06:21:00 AM 38.4083 154.0829 81° East  Level FlightAware Approximate
Wed 06:22:00 AM 38.4329 154.2794 81° East  Level FlightAware Approximate
Wed 06:23:00 AM 38.4572 154.4760 81° East  Level FlightAware Approximate
Wed 06:24:00 AM 38.4812 154.6728 81° East  Level FlightAware Approximate
Wed 06:25:00 AM 38.5048 154.8697 81° East  Level FlightAware Approximate
Wed 06:26:00 AM 38.5281 155.0667 81° East  Level FlightAware Approximate
Wed 06:27:00 AM 38.5511 155.2638 81° East  Level FlightAware Approximate
Wed 06:28:00 AM 38.5737 155.4611 82° East  Level FlightAware Approximate
Wed 06:29:00 AM 38.5960 155.6585 82° East  Level FlightAware Approximate
Wed 06:30:00 AM 38.6180 155.8560 82° East  Level FlightAware Approximate
Wed 06:31:00 AM 38.6397 156.0536 82° East  Level FlightAware Approximate
Wed 06:32:00 AM 38.6610 156.2514 82° East  Level FlightAware Approximate
Wed 06:33:00 AM 38.6819 156.4493 82° East  Level FlightAware Approximate
Wed 06:34:00 AM 38.7026 156.6472 82° East  Level FlightAware Approximate
Wed 06:35:00 AM 38.7690 156.8281 80° East  Level Estimated
Wed 06:36:00 AM 38.7961 157.0250 80° East  Level FlightAware Approximate
Wed 06:37:00 AM 38.8228 157.2221 80° East  Level FlightAware Approximate
Wed 06:38:00 AM 38.8492 157.4194 80° East  Level FlightAware Approximate
Wed 06:39:00 AM 38.8752 157.6168 80° East  Level FlightAware Approximate
Wed 06:40:00 AM 38.9010 157.8143 80° East  Level FlightAware Approximate
Wed 06:41:00 AM 38.9264 158.0120 81° East  Level FlightAware Approximate
Wed 06:42:00 AM 38.9514 158.2099 81° East  Level FlightAware Approximate
Wed 06:43:00 AM 38.9762 158.4078 81° East  Level FlightAware Approximate
Wed 06:44:00 AM 39.0005 158.6060 81° East  Level FlightAware Approximate
Wed 06:45:00 AM 39.0246 158.8042 81° East  Level FlightAware Approximate
Wed 06:46:00 AM 39.0483 159.0026 81° East  Level FlightAware Approximate
Wed 06:47:00 AM 39.0717 159.2011 81° East  Level FlightAware Approximate
Wed 06:48:00 AM 39.0948 159.3997 81° East  Level FlightAware Approximate
Wed 06:49:00 AM 39.1175 159.5985 82° East  Level FlightAware Approximate
Wed 06:50:00 AM 39.1399 159.7974 82° East  Level FlightAware Approximate
Wed 06:51:00 AM 39.1619 159.9964 82° East  Level FlightAware Approximate
Wed 06:52:00 AM 39.1836 160.1955 82° East  Level FlightAware Approximate
Wed 06:53:00 AM 39.2049 160.3948 82° East  Level FlightAware Approximate
Wed 06:54:00 AM 39.2260 160.5942 82° East  Level FlightAware Approximate
Wed 06:55:00 AM 39.2467 160.7937 82° East  Level FlightAware Approximate
Wed 06:56:00 AM 39.2670 160.9933 82° East  Level FlightAware Approximate
Wed 06:57:00 AM 39.2870 161.1931 83° East  Level FlightAware Approximate
Wed 06:58:00 AM 39.3066 161.3929 83° East  Level FlightAware Approximate
Wed 06:59:00 AM 39.3260 161.5929 83° East  Level FlightAware Approximate
Wed 07:00:00 AM 39.3858 161.7791 82° East  Level Estimated
Wed 07:01:00 AM 39.4078 161.9788 82° East  Level FlightAware Approximate
Wed 07:02:00 AM 39.4294 162.1786 82° East  Level FlightAware Approximate
Wed 07:03:00 AM 39.4507 162.3786 82° East  Level FlightAware Approximate
Wed 07:04:00 AM 39.4716 162.5787 82° East  Level FlightAware Approximate
Wed 07:05:00 AM 39.4922 162.7789 82° East  Level FlightAware Approximate
Wed 07:06:00 AM 39.5125 162.9793 82° East  Level FlightAware Approximate
Wed 07:07:00 AM 39.5324 163.1797 83° East  Level FlightAware Approximate
Wed 07:08:00 AM 39.5520 163.3803 83° East  Level FlightAware Approximate
Wed 07:09:00 AM 39.5712 163.5810 83° East  Level FlightAware Approximate
Wed 07:10:00 AM 39.5896 163.7772 83° East  Level FlightAware Approximate
Wed 07:11:00 AM 39.6077 163.9736 83° East  Level FlightAware Approximate
Wed 07:12:00 AM 39.6255 164.1700 83° East  Level FlightAware Approximate
Wed 07:13:00 AM 39.6430 164.3665 83° East  Level FlightAware Approximate
Wed 07:14:00 AM 39.6601 164.5632 83° East  Level FlightAware Approximate
Wed 07:15:00 AM 39.6769 164.7599 84° East  Level FlightAware Approximate
Wed 07:16:00 AM 39.6934 164.9568 84° East  Level FlightAware Approximate
Wed 07:17:00 AM 39.7094 165.1518 84° East  Level FlightAware Approximate
Wed 07:18:00 AM 39.7250 165.3470 84° East  Level FlightAware Approximate
Wed 07:19:00 AM 39.7404 165.5423 84° East  Level FlightAware Approximate
Wed 07:20:00 AM 39.7554 165.7376 84° East  Level FlightAware Approximate
Wed 07:21:00 AM 39.7700 165.9330 84° East  Level FlightAware Approximate
Wed 07:22:00 AM 39.7844 166.1285 84° East  Level FlightAware Approximate
Wed 07:23:00 AM 39.7984 166.3241 85° East  Level FlightAware Approximate
Wed 07:24:00 AM 39.8121 166.5198 85° East  Level FlightAware Approximate
Wed 07:25:00 AM 39.8255 166.7155 85° East  Level FlightAware Approximate
Wed 07:26:00 AM 39.8767 166.9005 79° East  Level Estimated
Wed 07:27:00 AM 39.9045 167.0938 79° East  Level FlightAware Approximate
Wed 07:28:00 AM 39.9319 167.2874 79° East  Level FlightAware Approximate
Wed 07:29:00 AM 39.9591 167.4810 80° East  Level FlightAware Approximate
Wed 07:29:13 AM 39.8167 167.3500 84° East 565 650 39,000  Level Oakland Oceanic (ODAPS)
Wed 07:39:13 AM 40.0167 170.1500 79° East 556 640 39,000  Level Oakland Oceanic (ODAPS)
Wed 07:39:30 AM 40.0333 170.2167 79° East 548 631 39,000  Level Oakland Oceanic (ODAPS)
Wed 07:53:05 AM 40.3833 172.8833 81° East 556 640 39,000  Level Oakland Oceanic (ODAPS)
Wed 08:06:58 AM 40.6833 175.6667 83° East 547 629 39,000  Level Oakland Oceanic (ODAPS)
Wed 08:20:48 AM 40.9000 178.4500 85° East 555 639 39,000  Level Oakland Oceanic (ODAPS)
Wed 08:28:33 AM 41.0000 180.0000 72° East 558 642 39,000  Level Oakland Oceanic (ODAPS)
Wed 08:34:40 AM 41.3000 -178.7500 72° East 564 649 39,000  Level Oakland Oceanic (ODAPS)
Wed 08:48:33 AM 41.9500 -175.8833 74° East 574 661 39,000  Level Oakland Oceanic (ODAPS)
Wed 09:02:26 AM 42.5167 -172.9167 76° East 587 676 39,000 37 Level Oakland Oceanic (ODAPS)
Wed 09:15:52 AM 43.0000 -170.0000 79° East 579 666 40,000  Climbing Oakland Oceanic (ODAPS)
Wed 09:16:00 AM 43.0000 -170.0000 79° East 587 676 39,000  Descending FlightAware Transoceanic
Wed 09:16:25 AM 43.0167 -169.9000 79° East 579 666 40,000 71 Climbing Oakland Oceanic (ODAPS)
Wed 09:30:09 AM 43.4167 -166.8833 81° East 568 654 40,000  Level Oakland Oceanic (ODAPS)
Wed 09:44:01 AM 43.7167 -163.9167 83° East 568 654 40,000 -108 Level Oakland Oceanic (ODAPS)
Wed 09:57:53 AM 43.9500 -160.8333 85° East 629 724 37,000 -172 Descending Oakland Oceanic (ODAPS)
Wed 10:01:25 AM 44.0000 -160.0000 87° East 605 696 37,000  Level Oakland Oceanic (ODAPS)
Wed 10:11:50 AM 44.0833 -157.5333 88° East 600 690 37,000 165 Level Oakland Oceanic (ODAPS)
Wed 10:25:38 AM 44.1000 -154.4500 90° East 575 662 41,000 147 Climbing Oakland Oceanic (ODAPS)
Wed 10:39:08 AM 44.0500 -151.5000 92° East 574 661 41,000  Level Oakland Oceanic (ODAPS)
Wed 10:46:05 AM 44.0000 -150.0000 102° East 562 647 41,000  Level Oakland Oceanic (ODAPS)
Wed 10:52:55 AM 43.7667 -148.5000 103° East 553 636 41,000  Level Oakland Oceanic (ODAPS)
Wed 11:06:47 AM 43.2500 -145.6333 105° East 553 636 41,000  Level Oakland Oceanic (ODAPS)
Wed 11:20:40 AM 42.6667 -142.8167 107° East 559 643 41,000  Level Oakland Oceanic (ODAPS)
Wed 11:34:31 AM 42.0167 -140.0333 124° Southeast 536 617 41,000  Level Oakland Oceanic (ODAPS)
Wed 11:34:46 AM 42.0000 -140.0000 108° East 554 638 41,000  Level Oakland Oceanic (ODAPS)
Wed 11:48:24 AM 41.3167 -137.3333 110° East 553 636 41,000  Level Oakland Oceanic (ODAPS)
Wed 12:02:15 PM 40.5500 -134.7000 112° Southeast 555 639 41,000  Level Oakland Oceanic (ODAPS)
Wed 12:16:07 PM 39.7333 -132.1167 113° Southeast 569 655 41,000  Level Oakland Oceanic (ODAPS)
Wed 12:27:42 PM 39.0000 -130.0000 102° East 559 643 41,000  Level Oakland Oceanic (ODAPS)
Wed 12:29:58 PM 38.9333 -129.5500 102° East 550 633 41,000 -8 Level Oakland Oceanic (ODAPS)
Wed 12:40:47 PM 38.5539 -127.4586 111° Southeast 564 649 40,900  Descending Oakland Center
Wed 12:41:00 PM 38.5420 -127.3901 104° East 550 633 41,000  Climbing FlightAware Transoceanic
Wed 12:41:48 PM 38.5192 -127.2672 103° East 560 644 40,900  Descending Oakland Center
Wed 12:42:00 PM 38.5045 -127.1950 104° East 550 633 41,000 97 Climbing FlightAware Transoceanic
Wed 12:42:50 PM 38.4819 -127.0750 104° East 560 644 41,000  Level Oakland Center
Wed 12:43:00 PM 38.4667 -127.0000 111° Southeast 550 633 41,000  Level FlightAware Transoceanic
Wed 12:43:51 PM 38.4342 -126.8878 108° East 556 640 41,000  Level Oakland Center
Wed 12:44:00 PM 38.4158 -126.8324 111° Southeast 550 633 41,000  Level FlightAware Transoceanic
Wed 12:44:53 PM 38.3733 -126.7061 113° Southeast 557 641 41,000  Level Oakland Center
Wed 12:45:00 PM 38.3646 -126.6650 111° Southeast 550 633 41,000  Level FlightAware Transoceanic
Wed 12:45:54 PM 38.3089 -126.5289 115° Southeast 555 639 41,000  Level Oakland Center
Wed 12:46:00 PM 38.3132 -126.4979 111° Southeast 550 633 41,000  Level FlightAware Transoceanic
Wed 12:46:55 PM 38.2447 -126.3536 115° Southeast 551 634 41,000  Level Oakland Center
Wed 12:47:57 PM 38.1706 -126.1525 115° Southeast 553 636 41,000  Level Oakland Center
Wed 12:48:58 PM 38.1069 -125.9767 115° Southeast 551 634 41,000  Level Oakland Center
Wed 12:50:00 PM 38.0411 -125.8003 115° Southeast 553 636 41,000 -49 Level Oakland Center
Wed 12:51:01 PM 37.9731 -125.6236 116° Southeast 556 640 40,900  Descending Oakland Center
Wed 12:52:03 PM 37.9081 -125.4469 115° Southeast 556 640 41,000 49 Climbing Oakland Center
Wed 12:53:04 PM 37.8403 -125.2694 116° Southeast 561 646 41,000  Level Oakland Center
Wed 12:54:06 PM 37.7722 -125.0919 116° Southeast 562 647 41,000 -49 Level Oakland Center
Wed 12:55:07 PM 37.6914 -124.8811 116° Southeast 559 643 40,900 -49 Descending Oakland Center
Wed 12:56:08 PM 37.6228 -124.7053 116° Southeast 561 646 40,900  Level Oakland Center
Wed 12:57:10 PM 37.5542 -124.5286 116° Southeast 563 648 40,900 49 Level Oakland Center
Wed 12:58:11 PM 37.4858 -124.3531 116° Southeast 562 647 41,000 49 Climbing Oakland Center
Wed 12:59:12 PM 37.4175 -124.1800 116° Southeast 557 641 41,000 -49 Level Oakland Center
Wed 01:00:14 PM 37.3506 -124.0092 116° Southeast 551 634 40,900 -49 Descending Oakland Center
Wed 01:01:15 PM 37.2778 -123.8322 117° Southeast 572 658 40,900  Level Oakland Center
Wed 01:02:17 PM 37.2086 -123.6583 116° Southeast 564 649 40,900 49 Level Oakland Center
Wed 01:03:18 PM 37.1269 -123.4514 116° Southeast 557 641 41,000  Climbing Oakland Center
Wed 01:04:19 PM 37.0572 -123.2831 117° Southeast 549 632 40,900 -49 Descending Oakland Center
Wed 01:05:21 PM 36.9892 -123.1119 116° Southeast 552 635 40,900 49 Level Oakland Center
Wed 01:06:22 PM 36.9194 -122.9425 117° Southeast 551 634 41,000  Climbing Oakland Center
Wed 01:07:23 PM 36.8494 -122.7728 117° Southeast 550 633 40,900 -49 Descending Oakland Center
Wed 01:08:25 PM 36.7806 -122.6019 117° Southeast 555 639 40,900  Level Oakland Center
Wed 01:09:26 PM 36.7097 -122.4350 118° Southeast 551 634 40,900 49 Level Oakland Center
Wed 01:10:27 PM 36.6253 -122.2331 117° Southeast 550 633 41,000 49 Climbing Oakland Center
Wed 01:11:29 PM 36.5539 -122.0631 118° Southeast 555 639 41,000  Level Oakland Center
Wed 01:12:30 PM 36.4819 -121.8953 118° Southeast 554 638 41,000  Level Oakland Center
Wed 01:13:31 PM 36.4078 -121.7208 118° Southeast 555 639 41,000 -49 Level Oakland Center
Wed 01:14:33 PM 36.3361 -121.5519 118° Southeast 555 639 40,900  Descending Oakland Center
Wed 01:15:34 PM 36.2614 -121.3828 119° Southeast 557 641 41,000  Climbing Oakland Center
Wed 01:16:35 PM 36.1814 -121.2189 121° Southeast 559 643 40,900  Descending Oakland Center
Wed 01:17:37 PM 36.0914 -121.0647 126° Southeast 554 638 41,000  Climbing Oakland Center
Wed 01:18:38 PM 36.0019 -120.9103 126° Southeast 553 636 40,900  Descending Oakland Center
Wed 01:19:39 PM 35.9128 -120.7533 125° Southeast 556 640 41,000  Climbing Oakland Center
Wed 01:20:40 PM 35.8153 -120.6058 129° Southeast 556 640 40,900 -49 Descending Oakland Center
Wed 01:21:42 PM 35.7053 -120.4739 136° Southeast 550 633 40,900 -151 Level Oakland Center
Wed 01:22:39 PM 35.5869 -120.3319 136° Southeast 552 635 40,600 -555 Descending Los Angeles Center
Wed 01:23:41 PM 35.5017 -120.2272 135° Southeast 545 627 39,800 -2,064 Descending Los Angeles Center
Wed 01:24:44 PM 35.3764 -120.0744 135° Southeast 538 619 36,300 -2,736 Descending Los Angeles Center
Wed 01:25:46 PM 35.2625 -119.9411 136° Southeast 558 642 34,100 -2,516 Descending Los Angeles Center
Wed 01:26:48 PM 35.1317 -119.7858 136° Southeast 548 631 31,100 -2,613 Descending Los Angeles Center
Wed 01:27:50 PM 35.0250 -119.6606 136° Southeast 535 616 28,700 -2,129 Descending Los Angeles Center
Wed 01:28:52 PM 34.9236 -119.5381 135° Southeast 519 597 26,700 -1,935 Descending Los Angeles Center
Wed 01:29:54 PM 34.8264 -119.4247 136° Southeast 490 564 24,700 -1,920 Descending Los Angeles Center
Wed 01:30:57 PM 34.7328 -119.3139 136° Southeast 472 543 22,700 -2,064 Descending Los Angeles Center
Wed 01:31:59 PM 34.6228 -119.1878 137° Southeast 457 526 20,400 -1,984 Descending Los Angeles Center
Wed 01:33:01 PM 34.5431 -119.0969 137° Southeast 448 516 18,600 -1,742 Descending Los Angeles Center
Wed 01:34:03 PM 34.4561 -118.9950 136° Southeast 432 497 16,800 -2,081 Descending Los Angeles Center
Wed 01:35:05 PM 34.3508 -118.8817 138° Southeast 420 483 14,300 -2,081 Descending Los Angeles Center
Wed 01:36:07 PM 34.2464 -118.8408 162° South 394 453 12,500 -1,258 Descending Los Angeles Center
Wed 01:37:09 PM 34.1494 -118.8044 163° South 365 420 11,700 -768 Descending Los Angeles Center
Wed 01:38:12 PM 34.0531 -118.7578 158° South 344 396 10,900 -816 Descending Los Angeles Center
Wed 01:39:14 PM 34.0297 -118.6614 106° East 309 356 10,000 -1,452 Descending Los Angeles Center
Wed 01:40:16 PM 34.0192 -118.5531 97° East 305 351 7,900 -1,452 Descending Los Angeles Center
Wed 01:41:18 PM 34.0108 -118.4572 96° East 291 335 7,000 -1,016 Descending Los Angeles Center
Wed 01:42:20 PM 34.0192 -118.3731 83° East 262 302 5,800 -1,161 Descending Los Angeles Center
Wed 01:43:22 PM 34.0264 -118.3083 82° East 250 288 4,600 -1,548 Descending Los Angeles Center
Wed 01:44:24 PM 34.0361 -118.2186 83° East 231 266 2,600 -968 Descending Los Angeles Center
Wed 01:45:26 PM 34.0414 -118.1494 85° East 227 261 2,600  Level Los Angeles Center
Wed 01:46:29 PM 33.9942 -118.1428 173° South 191 220 2,600  Level Los Angeles Center
Wed 01:47:30 PM 33.9725 -118.1989 245° Southwest 189 217 2,600 -145 Level Los Angeles Center
Wed 01:48:33 PM 33.9658 -118.2714 264° West 186 214 2,300 -528 Descending Los Angeles Center
Wed 01:49:35 PM 33.9608 -118.3233 263° West 171 197 1,500 -774 Descending Los Angeles Center
Wed 01:50:37 PM 33.9567 -118.3711 264° West 156 180 700 -629 Descending Los Angeles Center
Wed 01:51:39 PM 33.9511 -118.4200 262° West 151 174 200 -484 Descending Los Angeles Center

Login

Don't have an account? Register now (free) for customized features, flight alerts, and more!